Time;durP1;ratioP1;P1;durP2;ratioP2;P2;SDS_P1;SDS_P2;PMS_P1;PMS_P2;Temp;Humidity;BMP_temperature;BMP_pressure;BME280_temperature;BME280_humidity;BME280_pressure;Samples;Min_cycle;Max_cycle;Signal;HPM_P1;HPM_P2
2024/04/04 00:02:23;;;;;;;5.10;1.77;;;;;;;15.86;59.75;99883.81;5153331;27;20105;-53
2024/04/04 00:04:58;;;;;;;4.88;2.00;;;;;;;15.84;60.54;99880.41;5152992;27;20054;-52
2024/04/04 00:07:25;;;;;;;7.68;1.90;;;;;;;15.77;61.77;99881.06;5153206;27;20043;-51
2024/04/04 00:09:52;;;;;;;5.38;1.60;;;;;;;15.67;62.48;99872.97;5153093;27;20454;-53
2024/04/04 00:12:20;;;;;;;6.15;1.88;;;;;;;15.66;63.34;99871.25;5153267;27;20074;-53
2024/04/04 00:14:48;;;;;;;5.05;1.65;;;;;;;15.67;63.61;99875.66;5152934;27;20050;-52
2024/04/04 00:17:15;;;;;;;5.55;1.75;;;;;;;15.66;64.03;99865.88;5152888;27;20107;-51
2024/04/04 00:19:42;;;;;;;4.45;1.77;;;;;;;15.60;64.39;99869.94;5152855;27;20047;-52
2024/04/04 00:22:09;;;;;;;6.35;1.70;;;;;;;15.56;64.56;99875.69;5152614;27;20050;-53
2024/04/04 00:24:35;;;;;;;5.10;2.00;;;;;;;15.59;64.58;99872.75;5152428;27;20047;-50
2024/04/04 00:27:03;;;;;;;5.47;1.60;;;;;;;15.57;63.95;99863.97;5152655;27;20039;-51
2024/04/04 00:29:30;;;;;;;3.72;1.75;;;;;;;15.62;63.88;99875.19;5152531;27;20043;-53
2024/04/04 00:31:58;;;;;;;5.88;2.00;;;;;;;15.51;64.08;99870.72;5152484;27;20046;-50
2024/04/04 00:34:25;;;;;;;5.80;1.90;;;;;;;15.39;64.38;99869.94;5152387;27;20050;-51
2024/04/04 00:36:52;;;;;;;6.43;1.80;;;;;;;15.49;64.06;99871.84;5152406;27;20474;-54
2024/04/04 00:39:18;;;;;;;5.15;1.60;;;;;;;15.48;64.50;99875.50;5152343;27;20046;-53
2024/04/04 00:41:45;;;;;;;4.15;1.80;;;;;;;15.51;64.42;99883.28;5152143;27;20047;-51
2024/04/04 00:44:12;;;;;;;5.32;1.83;;;;;;;15.54;64.14;99885.72;5152254;27;20102;-50
2024/04/04 00:46:39;;;;;;;5.43;1.60;;;;;;;15.49;64.51;99887.97;5152191;27;20049;-53
2024/04/04 00:49:07;;;;;;;7.28;2.00;;;;;;;15.48;64.70;99887.13;5152580;27;20058;-53
2024/04/04 00:51:34;;;;;;;6.65;1.95;;;;;;;15.43;64.99;99889.31;5152158;27;20071;-52
2024/04/04 00:54:01;;;;;;;6.72;1.80;;;;;;;15.45;64.92;99885.53;5152126;27;20102;-49
2024/04/04 00:56:30;;;;;;;5.28;1.80;;;;;;;15.37;65.48;99893.41;5152015;27;20510;-53
2024/04/04 00:58:56;;;;;;;4.60;1.80;;;;;;;15.34;65.73;99890.97;5151952;27;20047;-51
2024/04/04 01:01:26;;;;;;;4.93;1.80;;;;;;;15.43;65.25;99887.50;5152124;27;20042;-52
2024/04/04 01:03:53;;;;;;;4.25;1.90;;;;;;;15.50;65.21;99889.66;5152167;27;20051;-52
2024/04/04 01:06:30;;;;;;;6.57;1.65;;;;;;;15.46;65.31;99887.25;5152002;27;20081;-51
2024/04/04 01:08:58;;;;;;;7.03;1.90;;;;;;;15.54;64.92;99885.72;5151641;27;20045;-50
2024/04/04 01:11:25;;;;;;;4.45;1.75;;;;;;;15.50;64.83;99890.50;5151964;27;20142;-51
2024/04/04 01:13:51;;;;;;;5.47;1.70;;;;;;;15.44;64.99;99894.59;5151878;27;20762;-52
2024/04/04 01:16:19;;;;;;;5.03;1.80;;;;;;;15.37;65.36;99887.19;5151461;27;20051;-50
2024/04/04 01:18:45;;;;;;;5.82;2.05;;;;;;;15.40;65.76;99885.06;5151699;27;20038;-51
2024/04/04 01:21:13;;;;;;;5.03;2.00;;;;;;;15.36;66.29;99889.03;5151676;27;20058;-53
2024/04/04 01:23:40;;;;;;;5.40;2.03;;;;;;;15.41;66.05;99889.47;5151357;27;20082;-51
2024/04/04 01:26:08;;;;;;;5.95;1.80;;;;;;;15.40;66.17;99879.69;5151443;27;20043;-53
2024/04/04 01:28:34;;;;;;;4.80;1.88;;;;;;;15.39;66.44;99886.06;5151356;27;20119;-51
2024/04/04 01:31:01;;;;;;;5.82;1.90;;;;;;;15.35;66.61;99890.00;5151242;27;20053;-53
2024/04/04 01:33:28;;;;;;;4.13;1.92;;;;;;;15.34;66.50;99895.50;5151321;27;20042;-51
2024/04/04 01:35:55;;;;;;;5.47;2.00;;;;;;;15.26;66.79;99890.78;5151032;27;20053;-51
2024/04/04 01:38:21;;;;;;;5.55;1.80;;;;;;;15.27;66.60;99895.19;5151390;27;20372;-53
2024/04/04 01:40:50;;;;;;;6.55;2.33;;;;;;;15.35;66.29;99884.63;5151392;27;20119;-52
2024/04/04 01:43:17;;;;;;;6.60;2.08;;;;;;;15.34;66.52;99888.28;5151407;27;20039;-51
2024/04/04 01:45:44;;;;;;;5.45;1.80;;;;;;;15.27;66.81;99888.97;5151184;27;20475;-55
2024/04/04 01:48:10;;;;;;;5.95;2.03;;;;;;;15.22;66.96;99885.78;5151219;27;20049;-52
2024/04/04 01:50:38;;;;;;;5.03;1.88;;;;;;;15.17;67.01;99883.53;5150896;27;20050;-55
2024/04/04 01:53:05;;;;;;;7.18;2.33;;;;;;;15.22;67.24;99880.41;5150980;27;20043;-52
2024/04/04 01:55:33;;;;;;;7.45;2.10;;;;;;;15.12;67.00;99877.66;5151083;27;20038;-52
2024/04/04 01:58:00;;;;;;;6.90;2.03;;;;;;;15.09;66.90;99875.25;5151133;27;20125;-51
2024/04/04 02:00:28;;;;;;;9.15;2.25;;;;;;;14.96;67.45;99879.94;5150978;27;20042;-53
2024/04/04 02:02:54;;;;;;;5.00;2.03;;;;;;;14.84;68.07;99882.69;5150825;27;20046;-52
2024/04/04 02:05:22;;;;;;;5.72;2.17;;;;;;;14.99;68.02;99882.38;5150368;27;20150;-50
2024/04/04 02:07:48;;;;;;;5.75;2.45;;;;;;;14.99;68.03;99880.56;5151195;27;20043;-54
2024/04/04 02:10:15;;;;;;;5.93;2.40;;;;;;;15.01;67.80;99877.72;5151741;27;20107;-53
2024/04/04 02:12:41;;;;;;;6.07;2.42;;;;;;;14.95;67.55;99891.66;5155198;27;20050;-51
2024/04/04 02:15:11;;;;;;;6.10;2.70;;;;;;;14.94;66.99;99892.66;5154843;27;20055;-52
2024/04/04 02:17:37;;;;;;;6.10;2.00;;;;;;;14.93;66.92;99907.06;5155039;27;20130;-51
2024/04/04 02:20:09;;;;;;;6.75;2.50;;;;;;;14.87;66.95;99919.19;5154962;27;20043;-54
2024/04/04 02:22:36;;;;;;;7.83;2.53;;;;;;;14.82;66.94;99935.66;5155337;27;20050;-52
2024/04/04 02:25:04;;;;;;;8.15;2.22;;;;;;;14.73;67.38;99943.63;5155235;27;20426;-53
2024/04/04 02:27:33;;;;;;;5.05;2.08;;;;;;;14.68;67.80;99946.69;5155041;27;20042;-51
2024/04/04 02:30:01;;;;;;;4.95;2.20;;;;;;;14.71;68.26;99938.38;5154863;27;20058;-53
2024/04/04 02:32:29;;;;;;;8.85;2.42;;;;;;;14.68;68.09;99941.31;5154608;27;20043;-49
2024/04/04 02:34:57;;;;;;;6.88;2.50;;;;;;;14.72;68.03;99941.91;5154577;27;20046;-53
2024/04/04 02:37:23;;;;;;;6.60;2.40;;;;;;;14.65;67.98;99949.59;5154990;27;20130;-51
2024/04/04 02:39:51;;;;;;;6.47;2.08;;;;;;;14.68;68.03;99956.59;5154704;27;20046;-51
2024/04/04 02:42:17;;;;;;;6.93;2.60;;;;;;;14.72;68.20;99944.59;5154411;27;20050;-51
2024/04/04 02:44:44;;;;;;;6.78;2.25;;;;;;;14.75;67.97;99942.50;5154585;27;20388;-53
2024/04/04 02:47:10;;;;;;;8.48;2.30;;;;;;;14.65;68.19;99941.56;5154244;27;20557;-51
2024/04/04 02:49:39;;;;;;;4.18;2.00;;;;;;;14.66;68.10;99958.50;5154587;27;20092;-51
2024/04/04 02:52:05;;;;;;;4.85;1.90;;;;;;;14.62;68.30;99957.06;5154578;27;20137;-52
2024/04/04 02:54:33;;;;;;;4.93;2.00;;;;;;;14.52;68.83;99965.03;5154402;27;20448;-51
2024/04/04 02:56:59;;;;;;;5.55;1.90;;;;;;;14.47;68.88;99959.16;5154407;27;20054;-53
2024/04/04 02:59:27;;;;;;;6.55;2.13;;;;;;;14.51;68.72;99966.00;5154178;27;20043;-52
2024/04/04 03:01:53;;;;;;;4.78;2.03;;;;;;;14.55;67.57;99956.72;5153924;27;20095;-50
2024/04/04 03:04:20;;;;;;;6.13;1.80;;;;;;;14.39;67.17;99959.78;5154195;27;20050;-52
2024/04/04 03:06:51;;;;;;;4.30;1.85;;;;;;;14.48;66.65;99960.91;5154323;27;20133;-52
2024/04/04 03:09:18;;;;;;;5.38;2.55;;;;;;;14.44;66.95;99954.00;5154072;27;20043;-52
2024/04/04 03:11:45;;;;;;;5.28;2.00;;;;;;;14.40;67.30;99963.31;5154007;27;20187;-52
2024/04/04 03:14:12;;;;;;;5.60;1.65;;;;;;;14.41;67.06;99960.50;5153853;27;20054;-50
2024/04/04 03:16:39;;;;;;;3.72;1.50;;;;;;;14.30;66.68;99960.50;5153684;27;20065;-49
2024/04/04 03:19:05;;;;;;;5.20;1.90;;;;;;;14.33;67.07;99969.16;5154000;27;20058;-50
2024/04/04 03:21:33;;;;;;;5.18;1.73;;;;;;;14.38;66.41;99960.75;5153815;27;20046;-50
2024/04/04 03:24:00;;;;;;;3.72;1.50;;;;;;;14.28;66.79;99955.28;5153707;27;20467;-50
2024/04/04 03:26:27;;;;;;;5.22;1.52;;;;;;;14.36;66.15;99959.13;5153653;27;20078;-50
2024/04/04 03:28:54;;;;;;;4.35;1.60;;;;;;;14.40;66.44;99960.63;5153704;27;20053;-53
2024/04/04 03:31:21;;;;;;;5.93;1.73;;;;;;;14.37;66.72;99960.84;5153877;27;20050;-54
2024/04/04 03:33:50;;;;;;;4.13;1.52;;;;;;;14.44;66.54;99964.75;5153610;27;20046;-50
2024/04/04 03:36:17;;;;;;;4.90;1.60;;;;;;;14.38;65.92;99960.75;5153755;27;20130;-53
2024/04/04 03:38:44;;;;;;;4.55;1.83;;;;;;;14.45;66.22;99959.28;5153584;27;20039;-50
2024/04/04 03:41:13;;;;;;;5.03;1.95;;;;;;;14.41;66.33;99956.94;5153484;27;20051;-50
2024/04/04 03:43:40;;;;;;;5.93;2.00;;;;;;;14.26;67.08;99962.56;5153267;27;20039;-53
2024/04/04 03:46:07;;;;;;;3.90;1.80;;;;;;;14.23;66.56;99961.97;5153271;27;20054;-54
2024/04/04 03:48:35;;;;;;;4.82;2.10;;;;;;;14.10;67.94;99962.09;5153457;27;20038;-55
2024/04/04 03:51:01;;;;;;;8.52;2.10;;;;;;;14.06;68.08;99960.63;5153063;27;20054;-51
2024/04/04 03:53:29;;;;;;;4.68;1.90;;;;;;;14.02;68.83;99965.38;5153028;27;20092;-52
2024/04/04 03:55:55;;;;;;;5.25;1.90;;;;;;;14.17;68.25;99974.03;5153092;27;20411;-52
2024/04/04 03:58:23;;;;;;;5.43;2.00;;;;;;;14.20;68.13;99976.47;5152989;27;20467;-54
2024/04/04 04:00:50;;;;;;;5.78;1.92;;;;;;;13.92;69.51;99980.50;5153346;27;20072;-53
2024/04/04 04:03:18;;;;;;;5.85;2.03;;;;;;;14.06;69.27;99987.44;5153239;27;20163;-51
2024/04/04 04:05:45;;;;;;;8.45;2.10;;;;;;;14.03;69.58;99982.31;5152980;27;20054;-50
2024/04/04 04:08:14;;;;;;;8.48;2.35;;;;;;;14.11;69.52;99987.94;5153026;27;20132;-55
2024/04/04 04:10:40;;;;;;;8.57;2.33;;;;;;;14.14;68.86;99990.38;5152928;27;20050;-52
2024/04/04 04:13:08;;;;;;;5.72;2.00;;;;;;;14.22;68.52;99990.63;5153083;27;20079;-55
2024/04/04 04:15:35;;;;;;;6.25;2.13;;;;;;;14.25;67.82;99987.69;5152895;27;20058;-51
2024/04/04 04:18:03;;;;;;;6.57;2.28;;;;;;;14.18;68.39;99997.19;5152837;27;20163;-53
2024/04/04 04:23:14;;;;;;;5.80;2.10;;;;;;;14.24;68.90;99994.03;5111260;27;20130;-52
2024/04/04 04:25:41;;;;;;;8.07;2.17;;;;;;;14.31;68.40;99997.09;5152611;27;20053;-51
2024/04/04 04:28:07;;;;;;;8.85;1.98;;;;;;;14.29;67.35;100005.25;5152684;27;20047;-52
2024/04/04 04:30:36;;;;;;;6.78;2.13;;;;;;;14.40;66.56;100000.88;5152644;27;20094;-51
2024/04/04 04:33:02;;;;;;;7.13;2.15;;;;;;;14.44;66.21;100003.16;5151955;27;20050;-53
2024/04/04 04:35:30;;;;;;;5.38;1.85;;;;;;;14.44;65.65;100007.69;5152399;27;20087;-50
2024/04/04 04:37:56;;;;;;;8.00;2.05;;;;;;;14.45;65.50;100004.06;5152409;27;20106;-53
2024/04/04 04:40:26;;;;;;;6.15;1.95;;;;;;;14.50;65.15;100009.91;5152971;27;20432;-52
2024/04/04 04:42:53;;;;;;;8.40;2.20;;;;;;;14.49;64.98;100010.91;5152601;27;20081;-51
2024/04/04 04:45:20;;;;;;;4.82;2.08;;;;;;;14.44;65.05;100015.72;5152087;27;20066;-53
2024/04/04 04:47:48;;;;;;;5.60;1.95;;;;;;;14.46;65.00;100021.84;5152131;27;20043;-53
2024/04/04 04:50:15;;;;;;;6.35;2.20;;;;;;;14.49;64.46;100017.13;5152198;27;20406;-54
2024/04/04 04:52:41;;;;;;;6.90;2.20;;;;;;;14.36;64.63;100020.84;5152109;27;20045;-52
2024/04/04 04:55:09;;;;;;;6.18;2.05;;;;;;;14.37;64.53;100027.91;5152241;27;20046;-50
2024/04/04 04:57:35;;;;;;;5.00;1.75;;;;;;;14.34;64.32;100034.41;5152243;27;20042;-51
2024/04/04 05:00:03;;;;;;;4.95;1.90;;;;;;;14.22;64.02;100038.91;5152335;27;20351;-52
2024/04/04 05:02:31;;;;;;;4.97;1.80;;;;;;;14.51;63.93;100041.16;5152728;27;20053;-53
2024/04/04 05:05:13;;;;;;;5.70;1.73;;;;;;;14.43;63.93;100043.53;5152407;27;20043;-53
2024/04/04 05:07:39;;;;;;;3.72;1.63;;;;;;;14.50;63.97;100047.50;5152964;27;20043;-52
2024/04/04 05:10:07;;;;;;;6.18;1.83;;;;;;;14.40;63.94;100043.81;5142145;27;20043;-48
2024/04/04 05:12:34;;;;;;;7.60;1.90;;;;;;;14.48;63.96;100044.94;5129370;27;20408;-52
2024/04/04 05:15:01;;;;;;;6.55;1.85;;;;;;;14.58;63.37;100043.22;5129810;27;20050;-52
2024/04/04 05:17:28;;;;;;;5.30;1.85;;;;;;;14.52;63.74;100048.22;5128933;27;20091;-52
2024/04/04 05:19:55;;;;;;;5.13;1.90;;;;;;;14.40;63.96;100046.47;5129233;27;20055;-53
2024/04/04 05:22:22;;;;;;;3.50;1.70;;;;;;;14.35;64.30;100049.50;5130174;27;20055;-49
2024/04/04 05:24:50;;;;;;;5.28;1.70;;;;;;;14.47;64.52;100045.03;5129760;27;20118;-52
2024/04/04 05:27:17;;;;;;;5.05;1.70;;;;;;;14.28;65.13;100046.47;5128415;27;20123;-55
2024/04/04 05:29:44;;;;;;;6.15;2.00;;;;;;;14.23;65.32;100054.03;5129573;27;20069;-50
2024/04/04 05:32:10;;;;;;;4.07;1.42;;;;;;;14.35;65.25;100052.19;5129365;27;20406;-50
2024/04/04 05:34:40;;;;;;;6.97;1.95;;;;;;;14.31;65.36;100056.97;5128410;27;20047;-50
2024/04/04 05:37:06;;;;;;;5.50;2.08;;;;;;;14.33;65.70;100055.00;5128268;27;20138;-50
2024/04/04 05:39:34;;;;;;;4.82;1.80;;;;;;;14.09;66.72;100056.94;5129035;27;20039;-54
2024/04/04 05:42:01;;;;;;;2.83;1.52;;;;;;;14.28;66.37;100046.47;5128990;27;20043;-53
2024/04/04 05:44:28;;;;;;;4.28;1.80;;;;;;;14.30;66.74;100051.72;5129029;27;20349;-51
2024/04/04 05:46:54;;;;;;;3.03;1.35;;;;;;;14.42;66.24;100044.53;5127024;27;20479;-53
2024/04/04 05:49:22;;;;;;;4.40;1.90;;;;;;;14.22;67.12;100063.06;5129210;27;20063;-50
2024/04/04 05:51:48;;;;;;;3.38;1.60;;;;;;;14.29;67.86;100053.56;5129559;27;20058;-50
2024/04/04 05:54:16;;;;;;;5.80;1.90;;;;;;;13.93;68.88;100062.63;5128803;28;20047;-52
2024/04/04 05:56:43;;;;;;;4.07;1.50;;;;;;;13.95;69.78;100066.03;5127744;28;20047;-52
2024/04/04 05:59:11;;;;;;;4.50;1.90;;;;;;;13.65;71.29;100063.88;5129529;28;20133;-51
2024/04/04 06:01:37;;;;;;;4.38;1.80;;;;;;;13.73;71.28;100074.88;5129321;28;20100;-54
2024/04/04 06:04:04;;;;;;;4.00;1.58;;;;;;;13.91;70.82;100077.13;5129607;28;20045;-53
2024/04/04 06:06:30;;;;;;;5.72;1.83;;;;;;;13.87;71.43;100078.31;5128451;28;20046;-51
2024/04/04 06:08:58;;;;;;;3.60;1.60;;;;;;;14.12;70.13;100071.94;5128953;27;21455;-50
2024/04/04 06:11:25;;;;;;;3.15;1.70;;;;;;;14.01;70.51;100080.81;5129275;27;20142;-49
2024/04/04 06:13:54;;;;;;;5.68;1.92;;;;;;;13.74;71.97;100075.72;5128663;28;20050;-50
2024/04/04 06:16:20;;;;;;;3.45;1.40;;;;;;;13.81;71.61;100084.19;5127976;27;20058;-50
2024/04/04 06:18:47;;;;;;;3.45;1.70;;;;;;;13.84;71.65;100082.09;5129091;28;20092;-52
2024/04/04 06:21:14;;;;;;;7.22;1.92;;;;;;;13.91;71.70;100074.44;5129266;28;20491;-53
2024/04/04 06:23:41;;;;;;;6.20;1.83;;;;;;;14.18;70.44;100072.28;5129029;28;20081;-52
2024/04/04 06:26:07;;;;;;;7.85;1.95;;;;;;;14.22;70.64;100079.16;5128152;28;20051;-53
2024/04/04 06:28:34;;;;;;;4.07;1.70;;;;;;;14.11;70.42;100083.63;5128476;27;20508;-54
2024/04/04 06:31:02;;;;;;;3.63;1.60;;;;;;;14.18;70.19;100090.22;5129476;28;20047;-49
2024/04/04 06:33:30;;;;;;;7.30;1.70;;;;;;;14.18;70.08;100087.53;5129409;28;20043;-53
2024/04/04 06:35:56;;;;;;;4.32;1.30;;;;;;;14.21;69.66;100090.84;5128514;28;20457;-55
2024/04/04 06:38:23;;;;;;;3.88;1.08;;;;;;;14.00;70.63;100089.84;5128503;28;20051;-49
2024/04/04 06:40:49;;;;;;;3.35;1.40;;;;;;;14.24;69.83;100093.28;5129256;27;20465;-51
2024/04/04 06:43:17;;;;;;;4.32;1.50;;;;;;;14.58;68.51;100096.91;5129063;28;20055;-53
2024/04/04 06:45:43;;;;;;;2.55;1.02;;;;;;;14.55;68.72;100088.22;5128851;27;20081;-52
2024/04/04 06:48:11;;;;;;;2.65;1.00;;;;;;;14.84;67.69;100094.81;5127312;27;20074;-50
2024/04/04 06:50:38;;;;;;;3.42;1.40;;;;;;;14.70;68.22;100095.06;5129268;28;20045;-50
2024/04/04 06:53:05;;;;;;;2.92;1.20;;;;;;;14.78;67.94;100095.31;5129069;28;20047;-52
2024/04/04 06:55:31;;;;;;;2.83;1.48;;;;;;;14.66;68.19;100107.00;5128874;28;20451;-49
2024/04/04 06:57:58;;;;;;;3.80;1.17;;;;;;;15.00;67.50;100110.53;5130610;27;20043;-50
2024/04/04 07:00:25;;;;;;;5.28;1.60;;;;;;;15.23;66.48;100122.09;5132555;27;20112;-52
2024/04/04 07:02:52;;;;;;;6.10;1.45;;;;;;;15.51;65.39;100117.16;5132425;27;20070;-50
2024/04/04 07:05:22;;;;;;;2.60;1.40;;;;;;;15.64;64.80;100112.50;5132372;27;20556;-53
2024/04/04 07:07:48;;;;;;;6.72;2.75;;;;;;;15.83;63.99;100107.31;5131078;27;20487;-50
2024/04/04 07:10:15;;;;;;;4.43;2.22;;;;;;;15.73;63.87;100111.75;5128635;27;20047;-50
2024/04/04 07:12:41;;;;;;;3.75;1.77;;;;;;;16.28;62.30;100117.81;5129312;27;20039;-53
2024/04/04 07:15:09;;;;;;;4.60;1.60;;;;;;;16.51;60.91;100111.31;5132009;27;20462;-51
2024/04/04 07:17:35;;;;;;;4.95;1.40;;;;;;;16.65;60.77;100114.63;5124288;27;20078;-50
2024/04/04 07:20:03;;;;;;;2.35;1.13;;;;;;;16.48;60.15;100124.16;5132112;27;20042;-52
2024/04/04 07:22:30;;;;;;;3.35;1.20;;;;;;;16.94;59.08;100126.41;5131049;27;20039;-52
2024/04/04 07:24:58;;;;;;;3.08;1.38;;;;;;;17.12;58.37;100129.31;5131545;27;20407;-50
2024/04/04 07:27:24;;;;;;;1.75;1.10;;;;;;;17.14;57.83;100127.31;5130759;27;20051;-49
2024/04/04 07:29:51;;;;;;;2.13;0.88;;;;;;;17.21;57.73;100127.63;5131944;27;20390;-50
2024/04/04 07:32:17;;;;;;;1.52;0.90;;;;;;;16.53;58.83;100133.56;5131951;27;20103;-51
2024/04/04 07:34:45;;;;;;;2.03;0.95;;;;;;;16.42;59.43;100136.31;5131564;27;20580;-52
2024/04/04 07:37:11;;;;;;;4.38;1.80;;;;;;;16.58;59.18;100136.69;5129852;27;20051;-53
2024/04/04 07:39:40;;;;;;;3.08;1.00;;;;;;;16.92;58.18;100135.63;5131371;27;20054;-51
2024/04/04 07:42:06;;;;;;;4.03;1.10;;;;;;;17.41;57.30;100126.69;5130920;27;20050;-54
2024/04/04 07:44:33;;;;;;;2.70;1.10;;;;;;;17.99;56.30;100132.16;5131166;27;20071;-53
2024/04/04 07:46:59;;;;;;;1.88;0.93;;;;;;;18.15;55.38;100135.13;5130048;27;20099;-53
2024/04/04 07:49:29;;;;;;;3.42;1.10;;;;;;;18.19;54.52;100138.38;5131502;27;20043;-51
2024/04/04 07:51:55;;;;;;;3.15;1.00;;;;;;;18.18;54.37;100140.25;5123081;27;20126;-52
2024/04/04 07:54:23;;;;;;;3.60;0.90;;;;;;;18.29;54.04;100148.19;5131422;27;20411;-51
2024/04/04 07:56:51;;;;;;;1.98;1.13;;;;;;;18.13;53.73;100142.50;5129214;27;20105;-50
2024/04/04 07:59:21;;;;;;;1.48;0.77;;;;;;;17.98;53.77;100146.66;5131318;27;20134;-51
2024/04/04 08:01:47;;;;;;;3.42;1.02;;;;;;;18.26;53.21;100147.63;5130839;27;20043;-52
2024/04/04 08:04:14;;;;;;;13.40;3.22;;;;;;;18.19;52.80;100141.09;5130355;27;20126;-48
2024/04/04 08:06:40;;;;;;;7.65;2.70;;;;;;;17.89;53.34;100150.19;5129338;27;20127;-49
2024/04/04 08:09:08;;;;;;;4.68;2.08;;;;;;;17.95;53.42;100147.78;5129868;27;20099;-49
2024/04/04 08:11:37;;;;;;;2.40;1.05;;;;;;;17.88;53.11;100145.78;5130388;27;20495;-49
2024/04/04 08:14:07;;;;;;;2.92;1.05;;;;;;;17.94;52.76;100145.22;5130270;27;20514;-49
2024/04/04 08:16:46;;;;;;;2.95;0.90;;;;;;;18.15;52.46;100145.09;5128804;27;20061;-50
2024/04/04 08:19:22;;;;;;;1.70;0.73;;;;;;;17.97;51.98;100158.44;5130716;27;20136;-51
2024/04/04 08:22:08;;;;;;;1.65;0.60;;;;;;;17.91;52.19;100156.28;5130369;27;20145;-50
2024/04/04 08:24:41;;;;;;;1.45;0.77;;;;;;;17.88;51.98;100161.97;5130571;27;20043;-50
2024/04/04 08:27:07;;;;;;;1.23;0.73;;;;;;;18.12;51.63;100157.00;5128703;27;20079;-52
2024/04/04 08:29:41;;;;;;;9.32;1.52;;;;;;;18.08;52.06;100155.59;5129668;27;20035;-51
2024/04/04 08:32:13;;;;;;;9.52;1.63;;;;;;;17.83;52.85;100156.16;5130395;27;20035;-51
2024/04/04 08:34:42;;;;;;;1.27;0.70;;;;;;;17.93;51.77;100168.66;5130634;27;20477;-53
2024/04/04 08:37:17;;;;;;;15.90;5.47;;;;;;;18.37;51.61;100165.50;5128890;27;20051;-50
2024/04/04 08:39:49;;;;;;;9.75;3.22;;;;;;;18.59;51.49;100163.31;5129427;27;20407;-49
2024/04/04 08:42:37;;;;;;;21.60;10.73;;;;;;;18.81;51.51;100161.31;5129524;27;20425;-48
2024/04/04 08:45:20;;;;;;;5.20;2.70;;;;;;;18.66;51.03;100166.34;5130001;27;20043;-49
2024/04/04 08:47:52;;;;;;;6.88;2.13;;;;;;;18.98;50.21;100160.53;5128441;27;20051;-49
2024/04/04 08:50:22;;;;;;;3.38;1.33;;;;;;;18.84;50.45;100170.00;5129883;27;20526;-48
2024/04/04 08:52:56;;;;;;;9.57;2.72;;;;;;;18.88;50.42;100174.09;5130178;27;20053;-60
2024/04/04 08:55:31;;;;;;;6.75;1.70;;;;;;;18.58;50.92;100168.88;5134166;27;20130;-52
2024/04/04 08:58:27;;;;;;;2.90;1.05;;;;;;;18.75;50.95;100170.88;5132003;27;20099;-51
2024/04/04 09:01:19;;;;;;;2.15;1.05;;;;;;;18.71;50.87;100166.75;5132784;27;20558;-49
2024/04/04 09:04:01;;;;;;;4.72;1.30;;;;;;;18.91;50.68;100172.09;5130077;27;20043;-51
2024/04/04 09:06:35;;;;;;;13.13;1.52;;;;;;;18.90;50.34;100173.94;5128209;27;20486;-49
2024/04/04 09:09:12;;;;;;;4.85;1.00;;;;;;;19.17;50.56;100175.81;5120954;27;20096;-48
2024/04/04 09:11:44;;;;;;;3.15;1.00;;;;;;;19.52;50.04;100166.97;5129582;27;20043;-53
2024/04/04 09:14:10;;;;;;;9.55;1.50;;;;;;;19.59;50.11;100172.63;5129476;27;20107;-54
2024/04/04 09:16:49;;;;;;;7.25;1.13;;;;;;;19.52;49.55;100177.78;5128299;27;20055;-52
2024/04/04 09:19:19;;;;;;;2.08;0.88;;;;;;;18.91;50.32;100169.38;5129334;27;20043;-51
2024/04/04 09:21:47;;;;;;;6.22;1.10;;;;;;;19.14;50.19;100170.72;5129020;27;20196;-52
2024/04/04 09:24:15;;;;;;;2.13;0.65;;;;;;;19.07;49.92;100166.91;5129445;27;20062;-50
2024/04/04 09:26:43;;;;;;;7.97;1.25;;;;;;;19.21;50.76;100166.44;5127821;27;20546;-50
2024/04/04 09:29:10;;;;;;;2.15;0.93;;;;;;;19.28;50.93;100166.66;5129458;27;20463;-51
2024/04/04 09:31:41;;;;;;;1.50;0.90;;;;;;;19.31;50.63;100161.81;5129389;27;20125;-49
2024/04/04 09:34:10;;;;;;;3.00;0.80;;;;;;;19.39;50.56;100158.34;5129380;27;20047;-51
2024/04/04 09:36:39;;;;;;;2.17;0.73;;;;;;;19.55;50.67;100163.09;5128285;27;20109;-53
2024/04/04 09:39:08;;;;;;;11.80;5.90;;;;;;;19.48;50.64;100157.44;5128736;27;20153;-52
2024/04/04 09:41:38;;;;;;;10.77;3.97;;;;;;;19.47;51.03;100161.16;5129441;27;20043;-55
2024/04/04 09:44:05;;;;;;;4.75;1.13;;;;;;;19.38;50.54;100162.91;5128725;27;20548;-55
2024/04/04 09:46:44;;;;;;;2.33;0.75;;;;;;;19.49;50.67;100163.69;5118229;27;20111;-52
2024/04/04 09:49:23;;;;;;;1.35;0.52;;;;;;;19.45;50.27;100164.00;5129445;27;20046;-54
2024/04/04 09:52:01;;;;;;;2.30;1.20;;;;;;;19.21;50.36;100171.00;5129935;27;20071;-54
2024/04/04 09:57:17;;;;;;;3.25;1.38;;;;;;;19.05;50.21;100164.34;5119811;28;20415;-56
2024/04/04 10:00:13;;;;;;;2.72;1.00;;;;;;;19.27;50.62;100171.22;5128056;28;20511;-55
2024/04/04 10:03:04;;;;;;;2.03;0.95;;;;;;;19.40;50.99;100169.03;5124875;28;20075;-57
2024/04/04 10:05:57;;;;;;;;;;;;;;;19.39;50.71;100166.44;5128830;28;20047;-56
2024/04/04 10:08:33;;;;;;;2.55;1.30;;;;;;;19.43;50.46;100168.72;5124606;27;20370;-56
2024/04/04 10:11:10;;;;;;;3.47;1.10;;;;;;;19.42;49.51;100168.88;5129687;27;20043;-53
2024/04/04 10:13:39;;;;;;;3.58;1.00;;;;;;;19.24;50.21;100160.72;5127513;28;20130;-57
2024/04/04 10:16:18;;;;;;;6.30;1.67;;;;;;;19.09;51.22;100164.91;5127508;28;20047;-56
2024/04/04 10:18:55;;;;;;;3.83;1.70;;;;;;;19.20;50.63;100174.66;5128587;28;20100;-56
2024/04/04 10:21:38;;;;;;;3.60;1.70;;;;;;;19.22;50.82;100167.28;5129055;27;20096;-58
2024/04/04 10:24:22;;;;;;;3.67;2.03;;;;;;;19.29;50.39;100163.81;5130001;27;20047;-57
2024/04/04 10:26:54;;;;;;;3.50;1.10;;;;;;;19.16;50.63;100163.31;5125292;27;20047;-56
2024/04/04 10:29:33;;;;;;;;;;;;;;;;;;;;;
2024/04/04 10:32:18;;;;;;;2.00;1.02;;;;;;;19.13;50.65;100163.63;5123159;27;20645;-55
2024/04/04 10:35:39;;;;;;;2.45;1.00;;;;;;;19.12;50.86;100170.88;5133088;27;20066;-54
2024/04/04 10:38:12;;;;;;;2.83;1.00;;;;;;;18.96;51.18;100180.63;5129515;27;20047;-59
2024/04/04 10:40:56;;;;;;;4.32;1.20;;;;;;;18.72;51.63;100176.56;5130625;27;20047;-55
2024/04/04 10:46:27;;;;;;;3.67;1.08;;;;;;;18.58;51.75;100169.72;5126668;27;20051;-54
2024/04/04 10:48:55;;;;;;;1.92;0.95;;;;;;;18.83;51.80;100173.69;5133232;27;20063;-53
2024/04/04 10:51:28;;;;;;;4.53;1.17;;;;;;;18.83;52.49;100175.53;5132901;27;20487;-55
2024/04/04 10:53:56;;;;;;;2.50;0.88;;;;;;;19.10;52.08;100164.75;5132947;27;20147;-53
2024/04/04 10:56:33;;;;;;;1.98;0.90;;;;;;;19.55;51.46;100179.34;5131867;27;20141;-55
2024/04/04 10:59:11;;;;;;;2.85;1.10;;;;;;;19.55;51.03;100173.91;5132523;27;20485;-53
2024/04/04 11:01:40;;;;;;;2.30;1.10;;;;;;;19.59;51.27;100180.75;5132319;27;20057;-51
2024/04/04 11:07:38;;;;;;;3.70;0.90;;;;;;;19.67;50.67;100167.31;5131448;27;20123;-54
2024/04/04 11:10:35;;;;;;;1.75;0.88;;;;;;;19.67;50.79;100178.13;5123011;27;20656;-53
2024/04/04 11:13:26;;;;;;;1.55;0.77;;;;;;;19.94;49.75;100164.56;5132344;27;20139;-53
2024/04/04 11:15:59;;;;;;;4.40;1.00;;;;;;;19.96;49.45;100167.94;5131882;27;20057;-55
2024/04/04 11:18:38;;;;;;;3.05;0.77;;;;;;;20.31;49.07;100163.53;5132087;27;20131;-56
2024/04/04 11:21:13;;;;;;;2.53;1.00;;;;;;;20.45;48.88;100165.69;5132240;27;20175;-54
2024/04/04 11:24:17;;;;;;;1.65;0.63;;;;;;;20.40;47.38;100170.72;5132163;27;20086;-55
2024/04/04 11:27:09;;;;;;;4.25;0.70;;;;;;;19.74;48.41;100163.00;5125334;27;20073;-52
2024/04/04 11:30:00;;;;;;;4.22;1.70;;;;;;;19.66;48.73;100162.91;5131934;27;20054;-53
2024/04/04 11:32:58;;;;;;;2.05;0.60;;;;;;;19.45;48.54;100164.00;5131796;27;20483;-53
2024/04/04 11:35:48;;;;;;;2.78;0.68;;;;;;;19.63;48.42;100160.53;5131658;27;20417;-52
2024/04/04 11:38:30;;;;;;;1.95;0.63;;;;;;;19.96;48.20;100150.88;5130447;27;20100;-52
2024/04/04 11:41:14;;;;;;;6.18;1.05;;;;;;;20.02;48.37;100142.97;5129800;27;20043;-52
2024/04/04 11:46:34;;;;;;;2.45;0.88;;;;;;;19.97;48.26;100149.84;5127686;27;20126;-56
2024/04/04 11:49:16;;;;;;;1.92;0.63;;;;;;;19.74;48.37;100152.19;5131813;27;20448;-54
2024/04/04 11:52:08;;;;;;;2.40;0.70;;;;;;;19.69;48.73;100151.81;5131859;27;20382;-53
2024/04/04 11:55:41;;;;;;;3.17;0.75;;;;;;;19.78;48.61;100153.56;5124414;27;20613;-54
2024/04/04 11:58:00;;;;;;;5.00;1.25;;;;;;;19.89;48.72;100145.25;5106721;28;20051;-53
2024/04/04 12:00:53;;;;;;;2.28;1.08;;;;;;;19.91;48.81;100154.06;5129089;27;20053;-59